sensor_id;sensor_type;location;lat;lon;timestamp;P1;durP1;ratioP1;P2;durP2;ratioP2
11042;SDS011;5574;48.786;10.120;2024-02-16T00:01:59;4.57;;;3.40;;
11042;SDS011;5574;48.786;10.120;2024-02-16T00:04:26;5.90;;;3.87;;
11042;SDS011;5574;48.786;10.120;2024-02-16T00:06:53;6.97;;;3.57;;
11042;SDS011;5574;48.786;10.120;2024-02-16T00:09:19;9.67;;;4.00;;
11042;SDS011;5574;48.786;10.120;2024-02-16T00:11:47;8.63;;;3.70;;
11042;SDS011;5574;48.786;10.120;2024-02-16T00:14:15;7.47;;;3.90;;
11042;SDS011;5574;48.786;10.120;2024-02-16T00:16:42;5.97;;;3.73;;
11042;SDS011;5574;48.786;10.120;2024-02-16T00:19:09;5.03;;;3.53;;
11042;SDS011;5574;48.786;10.120;2024-02-16T00:21:35;6.33;;;3.40;;
11042;SDS011;5574;48.786;10.120;2024-02-16T00:24:02;6.60;;;3.27;;
11042;SDS011;5574;48.786;10.120;2024-02-16T00:26:29;7.80;;;3.83;;
11042;SDS011;5574;48.786;10.120;2024-02-16T00:28:57;4.57;;;3.63;;
11042;SDS011;5574;48.786;10.120;2024-02-16T00:31:24;8.07;;;3.70;;
11042;SDS011;5574;48.786;10.120;2024-02-16T00:33:50;5.53;;;3.67;;
11042;SDS011;5574;48.786;10.120;2024-02-16T00:36:17;9.83;;;3.23;;
11042;SDS011;5574;48.786;10.120;2024-02-16T00:38:44;7.87;;;3.33;;
11042;SDS011;5574;48.786;10.120;2024-02-16T00:41:16;7.13;;;3.70;;
11042;SDS011;5574;48.786;10.120;2024-02-16T00:43:44;5.20;;;3.30;;
11042;SDS011;5574;48.786;10.120;2024-02-16T00:46:12;7.43;;;3.60;;
11042;SDS011;5574;48.786;10.120;2024-02-16T00:48:39;8.77;;;3.90;;
11042;SDS011;5574;48.786;10.120;2024-02-16T00:51:06;6.30;;;3.47;;
11042;SDS011;5574;48.786;10.120;2024-02-16T00:53:32;7.70;;;3.30;;
11042;SDS011;5574;48.786;10.120;2024-02-16T00:55:59;7.73;;;3.20;;
11042;SDS011;5574;48.786;10.120;2024-02-16T00:58:26;11.40;;;3.43;;
11042;SDS011;5574;48.786;10.120;2024-02-16T01:00:52;4.53;;;3.00;;
11042;SDS011;5574;48.786;10.120;2024-02-16T01:03:21;8.27;;;3.63;;
11042;SDS011;5574;48.786;10.120;2024-02-16T01:05:47;4.10;;;2.93;;
11042;SDS011;5574;48.786;10.120;2024-02-16T01:08:14;8.60;;;3.13;;
11042;SDS011;5574;48.786;10.120;2024-02-16T01:10:41;7.57;;;3.30;;
11042;SDS011;5574;48.786;10.120;2024-02-16T01:13:07;5.50;;;3.23;;
11042;SDS011;5574;48.786;10.120;2024-02-16T01:15:35;6.70;;;3.10;;
11042;SDS011;5574;48.786;10.120;2024-02-16T01:18:03;7.07;;;3.10;;
11042;SDS011;5574;48.786;10.120;2024-02-16T01:20:31;5.37;;;3.00;;
11042;SDS011;5574;48.786;10.120;2024-02-16T01:22:58;4.90;;;2.80;;
11042;SDS011;5574;48.786;10.120;2024-02-16T01:25:25;5.37;;;2.70;;
11042;SDS011;5574;48.786;10.120;2024-02-16T01:27:51;5.27;;;2.97;;
11042;SDS011;5574;48.786;10.120;2024-02-16T01:30:18;5.77;;;3.10;;
11042;SDS011;5574;48.786;10.120;2024-02-16T01:32:46;7.00;;;3.00;;
11042;SDS011;5574;48.786;10.120;2024-02-16T01:35:13;4.23;;;2.90;;
11042;SDS011;5574;48.786;10.120;2024-02-16T01:37:42;6.53;;;2.90;;
11042;SDS011;5574;48.786;10.120;2024-02-16T01:40:09;5.80;;;2.63;;
11042;SDS011;5574;48.786;10.120;2024-02-16T01:42:39;4.70;;;2.60;;
11042;SDS011;5574;48.786;10.120;2024-02-16T01:45:06;5.20;;;2.37;;
11042;SDS011;5574;48.786;10.120;2024-02-16T01:47:34;5.20;;;2.70;;
11042;SDS011;5574;48.786;10.120;2024-02-16T01:50:01;5.33;;;2.80;;
11042;SDS011;5574;48.786;10.120;2024-02-16T01:52:28;8.10;;;3.00;;
11042;SDS011;5574;48.786;10.120;2024-02-16T01:54:57;8.43;;;3.00;;
11042;SDS011;5574;48.786;10.120;2024-02-16T01:57:24;6.60;;;3.00;;
11042;SDS011;5574;48.786;10.120;2024-02-16T01:59:51;6.30;;;3.10;;
11042;SDS011;5574;48.786;10.120;2024-02-16T02:02:18;8.70;;;3.37;;
11042;SDS011;5574;48.786;10.120;2024-02-16T02:04:45;8.67;;;3.23;;
11042;SDS011;5574;48.786;10.120;2024-02-16T02:07:12;7.43;;;2.97;;
11042;SDS011;5574;48.786;10.120;2024-02-16T02:09:39;5.07;;;3.10;;
11042;SDS011;5574;48.786;10.120;2024-02-16T02:12:08;7.03;;;3.03;;
11042;SDS011;5574;48.786;10.120;2024-02-16T02:14:35;6.40;;;3.20;;
11042;SDS011;5574;48.786;10.120;2024-02-16T02:17:02;6.53;;;3.30;;
11042;SDS011;5574;48.786;10.120;2024-02-16T02:19:29;6.53;;;3.30;;
11042;SDS011;5574;48.786;10.120;2024-02-16T02:21:56;7.33;;;3.00;;
11042;SDS011;5574;48.786;10.120;2024-02-16T02:24:24;6.60;;;3.07;;
11042;SDS011;5574;48.786;10.120;2024-02-16T02:26:51;7.33;;;2.93;;
11042;SDS011;5574;48.786;10.120;2024-02-16T02:29:17;4.23;;;2.97;;
11042;SDS011;5574;48.786;10.120;2024-02-16T02:31:45;7.80;;;3.30;;
11042;SDS011;5574;48.786;10.120;2024-02-16T02:34:11;6.00;;;3.10;;
11042;SDS011;5574;48.786;10.120;2024-02-16T02:36:39;6.43;;;3.00;;
11042;SDS011;5574;48.786;10.120;2024-02-16T02:39:06;5.03;;;2.80;;
11042;SDS011;5574;48.786;10.120;2024-02-16T02:41:34;4.53;;;3.00;;
11042;SDS011;5574;48.786;10.120;2024-02-16T02:44:01;5.93;;;3.10;;
11042;SDS011;5574;48.786;10.120;2024-02-16T02:46:27;7.27;;;3.00;;
11042;SDS011;5574;48.786;10.120;2024-02-16T02:48:54;7.63;;;3.03;;
11042;SDS011;5574;48.786;10.120;2024-02-16T02:51:20;5.60;;;3.27;;
11042;SDS011;5574;48.786;10.120;2024-02-16T02:53:47;5.70;;;3.57;;
11042;SDS011;5574;48.786;10.120;2024-02-16T02:56:14;5.80;;;3.20;;
11042;SDS011;5574;48.786;10.120;2024-02-16T02:58:42;6.17;;;3.50;;
11042;SDS011;5574;48.786;10.120;2024-02-16T03:01:08;5.87;;;3.27;;
11042;SDS011;5574;48.786;10.120;2024-02-16T03:03:35;5.47;;;2.90;;
11042;SDS011;5574;48.786;10.120;2024-02-16T03:06:02;4.73;;;3.47;;
11042;SDS011;5574;48.786;10.120;2024-02-16T03:08:29;3.30;;;2.90;;
11042;SDS011;5574;48.786;10.120;2024-02-16T03:10:56;7.37;;;3.10;;
11042;SDS011;5574;48.786;10.120;2024-02-16T03:13:25;8.80;;;2.90;;
11042;SDS011;5574;48.786;10.120;2024-02-16T03:15:53;8.47;;;3.37;;
11042;SDS011;5574;48.786;10.120;2024-02-16T03:18:20;6.50;;;3.13;;
11042;SDS011;5574;48.786;10.120;2024-02-16T03:20:46;7.33;;;3.10;;
11042;SDS011;5574;48.786;10.120;2024-02-16T03:23:15;7.60;;;3.10;;
11042;SDS011;5574;48.786;10.120;2024-02-16T03:25:42;5.23;;;3.03;;
11042;SDS011;5574;48.786;10.120;2024-02-16T03:28:09;5.00;;;2.93;;
11042;SDS011;5574;48.786;10.120;2024-02-16T03:30:37;3.80;;;2.77;;
11042;SDS011;5574;48.786;10.120;2024-02-16T03:33:05;4.83;;;3.40;;
11042;SDS011;5574;48.786;10.120;2024-02-16T03:35:31;7.40;;;3.03;;
11042;SDS011;5574;48.786;10.120;2024-02-16T03:37:58;5.07;;;3.10;;
11042;SDS011;5574;48.786;10.120;2024-02-16T03:40:25;5.70;;;3.17;;
11042;SDS011;5574;48.786;10.120;2024-02-16T03:42:52;6.63;;;3.37;;
11042;SDS011;5574;48.786;10.120;2024-02-16T03:45:19;6.80;;;3.30;;
11042;SDS011;5574;48.786;10.120;2024-02-16T03:47:46;10.90;;;3.77;;
11042;SDS011;5574;48.786;10.120;2024-02-16T03:50:16;6.57;;;3.27;;
11042;SDS011;5574;48.786;10.120;2024-02-16T03:52:42;7.17;;;3.43;;
11042;SDS011;5574;48.786;10.120;2024-02-16T03:55:09;10.30;;;3.80;;
11042;SDS011;5574;48.786;10.120;2024-02-16T03:57:36;5.67;;;3.30;;
11042;SDS011;5574;48.786;10.120;2024-02-16T04:00:04;6.40;;;3.53;;
11042;SDS011;5574;48.786;10.120;2024-02-16T04:02:32;10.30;;;3.33;;
11042;SDS011;5574;48.786;10.120;2024-02-16T04:04:58;5.47;;;3.40;;
11042;SDS011;5574;48.786;10.120;2024-02-16T04:07:26;6.03;;;3.60;;
11042;SDS011;5574;48.786;10.120;2024-02-16T04:09:53;6.53;;;3.93;;
11042;SDS011;5574;48.786;10.120;2024-02-16T04:12:20;5.73;;;3.33;;
11042;SDS011;5574;48.786;10.120;2024-02-16T04:14:46;5.33;;;3.27;;
11042;SDS011;5574;48.786;10.120;2024-02-16T04:17:13;6.93;;;3.40;;
11042;SDS011;5574;48.786;10.120;2024-02-16T04:19:40;6.43;;;3.30;;
11042;SDS011;5574;48.786;10.120;2024-02-16T04:22:06;6.23;;;3.50;;
11042;SDS011;5574;48.786;10.120;2024-02-16T04:24:34;6.67;;;3.90;;
11042;SDS011;5574;48.786;10.120;2024-02-16T04:27:01;6.37;;;3.73;;
11042;SDS011;5574;48.786;10.120;2024-02-16T04:29:27;4.17;;;3.43;;
11042;SDS011;5574;48.786;10.120;2024-02-16T04:31:54;5.67;;;3.47;;
11042;SDS011;5574;48.786;10.120;2024-02-16T04:34:21;6.40;;;3.50;;
11042;SDS011;5574;48.786;10.120;2024-02-16T04:36:47;5.73;;;3.70;;
11042;SDS011;5574;48.786;10.120;2024-02-16T04:39:14;11.27;;;3.70;;
11042;SDS011;5574;48.786;10.120;2024-02-16T04:41:43;7.77;;;3.87;;
11042;SDS011;5574;48.786;10.120;2024-02-16T04:44:10;7.53;;;3.80;;
11042;SDS011;5574;48.786;10.120;2024-02-16T04:46:37;6.10;;;3.50;;
11042;SDS011;5574;48.786;10.120;2024-02-16T04:49:04;6.33;;;4.20;;
11042;SDS011;5574;48.786;10.120;2024-02-16T04:51:31;5.17;;;3.53;;
11042;SDS011;5574;48.786;10.120;2024-02-16T04:53:57;4.93;;;3.83;;
11042;SDS011;5574;48.786;10.120;2024-02-16T04:56:24;6.23;;;3.80;;
11042;SDS011;5574;48.786;10.120;2024-02-16T04:58:52;5.90;;;3.87;;
11042;SDS011;5574;48.786;10.120;2024-02-16T05:01:19;6.33;;;3.83;;
11042;SDS011;5574;48.786;10.120;2024-02-16T05:03:46;5.80;;;3.80;;
11042;SDS011;5574;48.786;10.120;2024-02-16T05:06:12;4.83;;;3.87;;
11042;SDS011;5574;48.786;10.120;2024-02-16T05:08:40;6.20;;;3.53;;
11042;SDS011;5574;48.786;10.120;2024-02-16T05:11:06;7.37;;;3.53;;
11042;SDS011;5574;48.786;10.120;2024-02-16T05:13:35;4.37;;;3.93;;
11042;SDS011;5574;48.786;10.120;2024-02-16T05:16:03;8.67;;;4.33;;
11042;SDS011;5574;48.786;10.120;2024-02-16T05:18:34;8.07;;;5.17;;
11042;SDS011;5574;48.786;10.120;2024-02-16T05:21:01;7.20;;;5.50;;
11042;SDS011;5574;48.786;10.120;2024-02-16T05:23:28;7.43;;;4.03;;
11042;SDS011;5574;48.786;10.120;2024-02-16T05:25:54;5.60;;;4.30;;
11042;SDS011;5574;48.786;10.120;2024-02-16T05:28:21;5.97;;;4.27;;
11042;SDS011;5574;48.786;10.120;2024-02-16T05:30:48;5.47;;;4.10;;
11042;SDS011;5574;48.786;10.120;2024-02-16T05:33:16;5.90;;;4.40;;
11042;SDS011;5574;48.786;10.120;2024-02-16T05:35:42;7.13;;;4.17;;
11042;SDS011;5574;48.786;10.120;2024-02-16T05:38:10;6.57;;;3.97;;
11042;SDS011;5574;48.786;10.120;2024-02-16T05:40:46;8.47;;;4.13;;
11042;SDS011;5574;48.786;10.120;2024-02-16T05:43:19;8.33;;;3.67;;
11042;SDS011;5574;48.786;10.120;2024-02-16T05:45:46;7.67;;;4.17;;
11042;SDS011;5574;48.786;10.120;2024-02-16T05:48:12;7.60;;;3.97;;
11042;SDS011;5574;48.786;10.120;2024-02-16T05:50:40;6.93;;;4.43;;
11042;SDS011;5574;48.786;10.120;2024-02-16T05:53:09;8.53;;;4.87;;
11042;SDS011;5574;48.786;10.120;2024-02-16T05:55:36;7.90;;;5.17;;
11042;SDS011;5574;48.786;10.120;2024-02-16T05:58:03;5.97;;;4.27;;
11042;SDS011;5574;48.786;10.120;2024-02-16T06:00:31;7.67;;;4.83;;
11042;SDS011;5574;48.786;10.120;2024-02-16T06:02:59;5.73;;;4.30;;
11042;SDS011;5574;48.786;10.120;2024-02-16T06:05:26;7.30;;;5.30;;
11042;SDS011;5574;48.786;10.120;2024-02-16T06:07:54;8.63;;;4.43;;
11042;SDS011;5574;48.786;10.120;2024-02-16T06:10:21;7.40;;;5.60;;
11042;SDS011;5574;48.786;10.120;2024-02-16T06:12:48;8.67;;;6.30;;
11042;SDS011;5574;48.786;10.120;2024-02-16T06:15:15;7.93;;;6.33;;
11042;SDS011;5574;48.786;10.120;2024-02-16T06:17:41;8.67;;;7.10;;
11042;SDS011;5574;48.786;10.120;2024-02-16T06:20:08;8.67;;;6.23;;
11042;SDS011;5574;48.786;10.120;2024-02-16T06:22:36;8.07;;;6.17;;
11042;SDS011;5574;48.786;10.120;2024-02-16T06:25:04;6.83;;;6.13;;
11042;SDS011;5574;48.786;10.120;2024-02-16T06:27:31;8.30;;;5.77;;
11042;SDS011;5574;48.786;10.120;2024-02-16T06:29:58;6.73;;;5.33;;
11042;SDS011;5574;48.786;10.120;2024-02-16T06:32:25;7.00;;;6.00;;
11042;SDS011;5574;48.786;10.120;2024-02-16T06:34:52;8.63;;;6.30;;
11042;SDS011;5574;48.786;10.120;2024-02-16T06:37:19;9.00;;;6.50;;
11042;SDS011;5574;48.786;10.120;2024-02-16T06:39:46;10.00;;;6.97;;
11042;SDS011;5574;48.786;10.120;2024-02-16T06:42:14;9.07;;;6.90;;
11042;SDS011;5574;48.786;10.120;2024-02-16T06:44:40;13.47;;;6.67;;
11042;SDS011;5574;48.786;10.120;2024-02-16T06:47:07;9.07;;;6.73;;
11042;SDS011;5574;48.786;10.120;2024-02-16T06:49:34;7.73;;;6.90;;
11042;SDS011;5574;48.786;10.120;2024-02-16T06:52:00;9.57;;;7.07;;
11042;SDS011;5574;48.786;10.120;2024-02-16T06:54:27;9.47;;;7.50;;
11042;SDS011;5574;48.786;10.120;2024-02-16T06:56:54;7.97;;;7.03;;
11042;SDS011;5574;48.786;10.120;2024-02-16T06:59:22;9.30;;;7.13;;
11042;SDS011;5574;48.786;10.120;2024-02-16T07:01:48;9.30;;;7.43;;
11042;SDS011;5574;48.786;10.120;2024-02-16T07:04:15;8.37;;;7.23;;
11042;SDS011;5574;48.786;10.120;2024-02-16T07:06:42;8.87;;;7.13;;
11042;SDS011;5574;48.786;10.120;2024-02-16T07:09:09;10.70;;;7.80;;
11042;SDS011;5574;48.786;10.120;2024-02-16T07:11:39;13.57;;;8.90;;
11042;SDS011;5574;48.786;10.120;2024-02-16T07:14:06;10.10;;;7.93;;
11042;SDS011;5574;48.786;10.120;2024-02-16T07:16:34;7.90;;;7.13;;
11042;SDS011;5574;48.786;10.120;2024-02-16T07:19:01;9.60;;;7.47;;
11042;SDS011;5574;48.786;10.120;2024-02-16T07:21:27;11.60;;;8.70;;
11042;SDS011;5574;48.786;10.120;2024-02-16T07:23:54;10.87;;;7.87;;
11042;SDS011;5574;48.786;10.120;2024-02-16T07:26:21;7.23;;;6.23;;
11042;SDS011;5574;48.786;10.120;2024-02-16T07:28:48;10.17;;;7.50;;
11042;SDS011;5574;48.786;10.120;2024-02-16T07:31:14;8.80;;;6.87;;
11042;SDS011;5574;48.786;10.120;2024-02-16T07:33:42;9.83;;;7.43;;
11042;SDS011;5574;48.786;10.120;2024-02-16T07:36:09;10.53;;;8.33;;
11042;SDS011;5574;48.786;10.120;2024-02-16T07:38:36;10.47;;;7.70;;
11042;SDS011;5574;48.786;10.120;2024-02-16T07:41:02;8.47;;;7.63;;
11042;SDS011;5574;48.786;10.120;2024-02-16T07:43:30;8.30;;;7.27;;
11042;SDS011;5574;48.786;10.120;2024-02-16T07:45:57;8.40;;;7.50;;
11042;SDS011;5574;48.786;10.120;2024-02-16T07:48:24;8.10;;;7.20;;
11042;SDS011;5574;48.786;10.120;2024-02-16T07:50:52;10.20;;;7.50;;
11042;SDS011;5574;48.786;10.120;2024-02-16T07:53:19;8.00;;;7.20;;
11042;SDS011;5574;48.786;10.120;2024-02-16T07:55:46;10.90;;;7.37;;
11042;SDS011;5574;48.786;10.120;2024-02-16T07:58:13;11.23;;;7.80;;
11042;SDS011;5574;48.786;10.120;2024-02-16T08:00:39;10.33;;;7.63;;
11042;SDS011;5574;48.786;10.120;2024-02-16T08:03:06;11.33;;;7.60;;
11042;SDS011;5574;48.786;10.120;2024-02-16T08:05:33;9.73;;;8.30;;
11042;SDS011;5574;48.786;10.120;2024-02-16T08:08:01;10.43;;;8.13;;
11042;SDS011;5574;48.786;10.120;2024-02-16T08:10:28;10.40;;;8.47;;
11042;SDS011;5574;48.786;10.120;2024-02-16T08:12:55;13.00;;;9.27;;
11042;SDS011;5574;48.786;10.120;2024-02-16T08:15:21;9.90;;;8.73;;
11042;SDS011;5574;48.786;10.120;2024-02-16T08:17:49;10.90;;;8.50;;
11042;SDS011;5574;48.786;10.120;2024-02-16T08:20:16;9.27;;;8.37;;
11042;SDS011;5574;48.786;10.120;2024-02-16T08:22:43;10.20;;;8.40;;
11042;SDS011;5574;48.786;10.120;2024-02-16T08:25:11;9.40;;;8.20;;
11042;SDS011;5574;48.786;10.120;2024-02-16T08:27:37;9.33;;;8.47;;
11042;SDS011;5574;48.786;10.120;2024-02-16T08:30:04;10.60;;;8.47;;
11042;SDS011;5574;48.786;10.120;2024-02-16T08:32:33;9.60;;;8.70;;
11042;SDS011;5574;48.786;10.120;2024-02-16T08:35:00;10.97;;;9.37;;
11042;SDS011;5574;48.786;10.120;2024-02-16T08:37:28;11.90;;;9.07;;
11042;SDS011;5574;48.786;10.120;2024-02-16T08:39:54;10.43;;;9.03;;
11042;SDS011;5574;48.786;10.120;2024-02-16T08:42:22;10.00;;;9.00;;
11042;SDS011;5574;48.786;10.120;2024-02-16T08:44:49;9.87;;;8.87;;
11042;SDS011;5574;48.786;10.120;2024-02-16T08:47:16;11.87;;;9.27;;
11042;SDS011;5574;48.786;10.120;2024-02-16T08:49:42;9.37;;;8.30;;
11042;SDS011;5574;48.786;10.120;2024-02-16T08:52:09;9.60;;;8.43;;
11042;SDS011;5574;48.786;10.120;2024-02-16T08:54:36;10.60;;;8.47;;
11042;SDS011;5574;48.786;10.120;2024-02-16T08:57:03;10.33;;;9.27;;
11042;SDS011;5574;48.786;10.120;2024-02-16T08:59:32;9.50;;;8.53;;
11042;SDS011;5574;48.786;10.120;2024-02-16T09:01:59;10.80;;;8.87;;
11042;SDS011;5574;48.786;10.120;2024-02-16T09:04:26;11.87;;;9.67;;
11042;SDS011;5574;48.786;10.120;2024-02-16T09:06:52;10.40;;;9.13;;
11042;SDS011;5574;48.786;10.120;2024-02-16T09:09:19;9.77;;;8.87;;
11042;SDS011;5574;48.786;10.120;2024-02-16T09:11:46;13.40;;;10.40;;
11042;SDS011;5574;48.786;10.120;2024-02-16T09:14:13;10.77;;;9.67;;
11042;SDS011;5574;48.786;10.120;2024-02-16T09:16:41;12.33;;;9.43;;
11042;SDS011;5574;48.786;10.120;2024-02-16T09:19:07;11.67;;;9.10;;
11042;SDS011;5574;48.786;10.120;2024-02-16T09:21:34;9.77;;;8.73;;
11042;SDS011;5574;48.786;10.120;2024-02-16T09:24:01;10.40;;;9.40;;
11042;SDS011;5574;48.786;10.120;2024-02-16T09:26:29;10.67;;;9.57;;
11042;SDS011;5574;48.786;10.120;2024-02-16T09:28:58;9.77;;;8.87;;
11042;SDS011;5574;48.786;10.120;2024-02-16T09:31:24;10.40;;;9.27;;
11042;SDS011;5574;48.786;10.120;2024-02-16T09:33:53;15.20;;;9.77;;
11042;SDS011;5574;48.786;10.120;2024-02-16T09:36:19;11.13;;;9.63;;
11042;SDS011;5574;48.786;10.120;2024-02-16T09:38:47;11.30;;;10.23;;
11042;SDS011;5574;48.786;10.120;2024-02-16T09:41:13;12.40;;;9.83;;
11042;SDS011;5574;48.786;10.120;2024-02-16T09:43:41;11.03;;;9.53;;
11042;SDS011;5574;48.786;10.120;2024-02-16T09:46:08;12.07;;;9.90;;
11042;SDS011;5574;48.786;10.120;2024-02-16T09:48:35;10.27;;;9.37;;
11042;SDS011;5574;48.786;10.120;2024-02-16T09:51:05;9.93;;;8.90;;
11042;SDS011;5574;48.786;10.120;2024-02-16T09:53:31;10.17;;;8.77;;
11042;SDS011;5574;48.786;10.120;2024-02-16T09:55:58;9.93;;;8.93;;
11042;SDS011;5574;48.786;10.120;2024-02-16T09:58:26;9.53;;;8.53;;
11042;SDS011;5574;48.786;10.120;2024-02-16T10:00:54;10.67;;;9.57;;
11042;SDS011;5574;48.786;10.120;2024-02-16T10:03:25;11.47;;;9.20;;
11042;SDS011;5574;48.786;10.120;2024-02-16T10:06:04;9.97;;;8.93;;
11042;SDS011;5574;48.786;10.120;2024-02-16T10:08:32;10.77;;;9.20;;
11042;SDS011;5574;48.786;10.120;2024-02-16T10:11:02;11.77;;;8.60;;
11042;SDS011;5574;48.786;10.120;2024-02-16T10:13:30;10.97;;;9.77;;
11042;SDS011;5574;48.786;10.120;2024-02-16T10:16:06;10.50;;;8.87;;
11042;SDS011;5574;48.786;10.120;2024-02-16T10:18:34;11.50;;;9.80;;
11042;SDS011;5574;48.786;10.120;2024-02-16T10:21:02;10.33;;;9.17;;
11042;SDS011;5574;48.786;10.120;2024-02-16T10:23:30;10.57;;;9.20;;
11042;SDS011;5574;48.786;10.120;2024-02-16T10:25:57;11.10;;;9.87;;
11042;SDS011;5574;48.786;10.120;2024-02-16T10:28:25;9.90;;;8.30;;
11042;SDS011;5574;48.786;10.120;2024-02-16T10:30:57;9.13;;;8.23;;
11042;SDS011;5574;48.786;10.120;2024-02-16T10:33:26;10.50;;;8.43;;
11042;SDS011;5574;48.786;10.120;2024-02-16T10:35:55;9.60;;;8.07;;
11042;SDS011;5574;48.786;10.120;2024-02-16T10:38:23;14.03;;;9.77;;
11042;SDS011;5574;48.786;10.120;2024-02-16T10:40:51;9.83;;;8.50;;
11042;SDS011;5574;48.786;10.120;2024-02-16T10:43:20;11.63;;;9.20;;
11042;SDS011;5574;48.786;10.120;2024-02-16T10:45:48;10.93;;;8.97;;
11042;SDS011;5574;48.786;10.120;2024-02-16T10:48:18;8.93;;;8.00;;
11042;SDS011;5574;48.786;10.120;2024-02-16T10:50:45;11.83;;;8.37;;
11042;SDS011;5574;48.786;10.120;2024-02-16T10:53:14;10.50;;;8.70;;
11042;SDS011;5574;48.786;10.120;2024-02-16T10:55:43;9.97;;;7.87;;
11042;SDS011;5574;48.786;10.120;2024-02-16T10:58:11;11.67;;;8.10;;
11042;SDS011;5574;48.786;10.120;2024-02-16T11:00:47;13.40;;;9.00;;
11042;SDS011;5574;48.786;10.120;2024-02-16T11:03:16;12.23;;;8.80;;
11042;SDS011;5574;48.786;10.120;2024-02-16T11:05:43;10.53;;;7.57;;
11042;SDS011;5574;48.786;10.120;2024-02-16T11:08:11;13.13;;;8.10;;
11042;SDS011;5574;48.786;10.120;2024-02-16T11:10:39;10.10;;;7.23;;
11042;SDS011;5574;48.786;10.120;2024-02-16T11:13:06;8.30;;;7.40;;
11042;SDS011;5574;48.786;10.120;2024-02-16T11:15:34;10.13;;;7.63;;
11042;SDS011;5574;48.786;10.120;2024-02-16T11:18:03;13.20;;;7.17;;
11042;SDS011;5574;48.786;10.120;2024-02-16T11:20:35;9.63;;;7.17;;
11042;SDS011;5574;48.786;10.120;2024-02-16T11:23:04;7.70;;;6.87;;
11042;SDS011;5574;48.786;10.120;2024-02-16T11:25:32;9.53;;;6.83;;
11042;SDS011;5574;48.786;10.120;2024-02-16T11:28:00;10.20;;;7.27;;
11042;SDS011;5574;48.786;10.120;2024-02-16T11:30:28;9.73;;;7.10;;
11042;SDS011;5574;48.786;10.120;2024-02-16T11:33:00;8.23;;;6.47;;
11042;SDS011;5574;48.786;10.120;2024-02-16T11:35:27;9.30;;;8.10;;
11042;SDS011;5574;48.786;10.120;2024-02-16T11:37:55;11.43;;;7.20;;
11042;SDS011;5574;48.786;10.120;2024-02-16T11:40:22;7.70;;;6.63;;
11042;SDS011;5574;48.786;10.120;2024-02-16T11:42:48;7.10;;;5.80;;
11042;SDS011;5574;48.786;10.120;2024-02-16T11:45:15;6.80;;;4.97;;
11042;SDS011;5574;48.786;10.120;2024-02-16T11:47:42;5.40;;;4.27;;
11042;SDS011;5574;48.786;10.120;2024-02-16T11:50:10;5.80;;;4.70;;
11042;SDS011;5574;48.786;10.120;2024-02-16T11:52:37;8.47;;;5.07;;
11042;SDS011;5574;48.786;10.120;2024-02-16T11:55:07;9.07;;;5.00;;
11042;SDS011;5574;48.786;10.120;2024-02-16T11:57:34;3.23;;;1.83;;
11042;SDS011;5574;48.786;10.120;2024-02-16T12:00:01;3.07;;;1.80;;
11042;SDS011;5574;48.786;10.120;2024-02-16T12:02:34;2.40;;;1.47;;
11042;SDS011;5574;48.786;10.120;2024-02-16T12:05:01;3.83;;;1.75;;
11042;SDS011;5574;48.786;10.120;2024-02-16T12:07:29;2.67;;;1.33;;
11042;SDS011;5574;48.786;10.120;2024-02-16T12:09:58;7.05;;;1.63;;
11042;SDS011;5574;48.786;10.120;2024-02-16T12:12:25;2.58;;;1.63;;
11042;SDS011;5574;48.786;10.120;2024-02-16T12:14:52;4.18;;;2.00;;
11042;SDS011;5574;48.786;10.120;2024-02-16T12:17:20;2.85;;;1.70;;
11042;SDS011;5574;48.786;10.120;2024-02-16T12:19:47;25.48;;;3.75;;
11042;SDS011;5574;48.786;10.120;2024-02-16T12:22:16;2.83;;;1.67;;
11042;SDS011;5574;48.786;10.120;2024-02-16T12:24:45;7.85;;;1.70;;
11042;SDS011;5574;48.786;10.120;2024-02-16T12:27:12;2.03;;;1.60;;
11042;SDS011;5574;48.786;10.120;2024-02-16T12:29:39;38.42;;;4.60;;
11042;SDS011;5574;48.786;10.120;2024-02-16T12:32:06;4.38;;;2.50;;
11042;SDS011;5574;48.786;10.120;2024-02-16T12:34:34;3.47;;;2.08;;
11042;SDS011;5574;48.786;10.120;2024-02-16T12:37:03;1.90;;;1.70;;
11042;SDS011;5574;48.786;10.120;2024-02-16T12:39:32;15.32;;;4.65;;
11042;SDS011;5574;48.786;10.120;2024-02-16T12:42:00;2.95;;;1.90;;
11042;SDS011;5574;48.786;10.120;2024-02-16T12:44:26;2.22;;;2.00;;
11042;SDS011;5574;48.786;10.120;2024-02-16T12:46:53;1.90;;;1.80;;
11042;SDS011;5574;48.786;10.120;2024-02-16T12:49:20;4.00;;;1.90;;
11042;SDS011;5574;48.786;10.120;2024-02-16T12:51:47;2.58;;;1.60;;
11042;SDS011;5574;48.786;10.120;2024-02-16T12:54:14;2.70;;;1.90;;
11042;SDS011;5574;48.786;10.120;2024-02-16T12:56:44;2.55;;;2.10;;
11042;SDS011;5574;48.786;10.120;2024-02-16T12:59:12;19.42;;;3.33;;
11042;SDS011;5574;48.786;10.120;2024-02-16T13:01:39;14.50;;;3.53;;
11042;SDS011;5574;48.786;10.120;2024-02-16T13:04:06;3.55;;;1.90;;
11042;SDS011;5574;48.786;10.120;2024-02-16T13:06:33;3.42;;;1.95;;
11042;SDS011;5574;48.786;10.120;2024-02-16T13:08:59;2.90;;;2.05;;
11042;SDS011;5574;48.786;10.120;2024-02-16T13:11:27;3.00;;;1.80;;
11042;SDS011;5574;48.786;10.120;2024-02-16T13:13:54;3.22;;;2.00;;
11042;SDS011;5574;48.786;10.120;2024-02-16T13:16:22;2.17;;;1.52;;
11042;SDS011;5574;48.786;10.120;2024-02-16T13:18:49;5.88;;;2.30;;
11042;SDS011;5574;48.786;10.120;2024-02-16T13:21:15;9.95;;;8.88;;
11042;SDS011;5574;48.786;10.120;2024-02-16T13:23:42;2.60;;;2.30;;
11042;SDS011;5574;48.786;10.120;2024-02-16T13:26:09;3.70;;;2.20;;
11042;SDS011;5574;48.786;10.120;2024-02-16T13:28:35;5.38;;;1.92;;
11042;SDS011;5574;48.786;10.120;2024-02-16T13:31:02;10.73;;;2.90;;
11042;SDS011;5574;48.786;10.120;2024-02-16T13:33:30;3.28;;;2.30;;
11042;SDS011;5574;48.786;10.120;2024-02-16T13:35:57;3.55;;;2.38;;
11042;SDS011;5574;48.786;10.120;2024-02-16T13:38:24;3.90;;;2.40;;
11042;SDS011;5574;48.786;10.120;2024-02-16T13:40:50;5.50;;;2.10;;
11042;SDS011;5574;48.786;10.120;2024-02-16T13:43:17;6.60;;;2.15;;
11042;SDS011;5574;48.786;10.120;2024-02-16T13:45:48;3.75;;;2.10;;
11042;SDS011;5574;48.786;10.120;2024-02-16T13:48:16;4.68;;;2.03;;
11042;SDS011;5574;48.786;10.120;2024-02-16T13:50:45;8.88;;;3.30;;
11042;SDS011;5574;48.786;10.120;2024-02-16T13:53:13;5.20;;;2.60;;
11042;SDS011;5574;48.786;10.120;2024-02-16T13:55:40;3.67;;;2.00;;
11042;SDS011;5574;48.786;10.120;2024-02-16T13:58:07;1.95;;;1.55;;
11042;SDS011;5574;48.786;10.120;2024-02-16T14:00:34;5.25;;;2.22;;
11042;SDS011;5574;48.786;10.120;2024-02-16T14:03:01;4.97;;;2.13;;
11042;SDS011;5574;48.786;10.120;2024-02-16T14:05:28;3.97;;;1.90;;
11042;SDS011;5574;48.786;10.120;2024-02-16T14:07:57;5.75;;;2.28;;
11042;SDS011;5574;48.786;10.120;2024-02-16T14:10:23;6.18;;;2.00;;
11042;SDS011;5574;48.786;10.120;2024-02-16T14:12:50;4.38;;;2.17;;
11042;SDS011;5574;48.786;10.120;2024-02-16T14:15:17;4.15;;;1.70;;
11042;SDS011;5574;48.786;10.120;2024-02-16T14:17:44;3.47;;;1.98;;
11042;SDS011;5574;48.786;10.120;2024-02-16T14:20:10;7.22;;;2.33;;
11042;SDS011;5574;48.786;10.120;2024-02-16T14:22:37;2.85;;;1.90;;
11042;SDS011;5574;48.786;10.120;2024-02-16T14:25:05;5.43;;;2.08;;
11042;SDS011;5574;48.786;10.120;2024-02-16T14:27:35;4.35;;;2.05;;
11042;SDS011;5574;48.786;10.120;2024-02-16T14:30:02;7.03;;;2.22;;
11042;SDS011;5574;48.786;10.120;2024-02-16T14:32:29;4.00;;;1.95;;
11042;SDS011;5574;48.786;10.120;2024-02-16T14:34:56;3.92;;;2.13;;
11042;SDS011;5574;48.786;10.120;2024-02-16T14:37:23;2.85;;;2.03;;
11042;SDS011;5574;48.786;10.120;2024-02-16T14:39:49;4.68;;;1.90;;
11042;SDS011;5574;48.786;10.120;2024-02-16T14:42:18;3.53;;;1.73;;
11042;SDS011;5574;48.786;10.120;2024-02-16T14:44:44;3.28;;;1.85;;
11042;SDS011;5574;48.786;10.120;2024-02-16T14:47:11;4.95;;;2.03;;